sensor_id;sensor_type;location;lat;lon;timestamp;pressure;altitude;pressure_sealevel;temperature;humidity
24752;BME280;27246;52.376;4.628;2022-09-09T00:04:00;100527.41;;;15.94;88.15
24752;BME280;27246;52.376;4.628;2022-09-09T00:09:11;100521.13;;;16.05;87.43
24752;BME280;27246;52.376;4.628;2022-09-09T00:14:22;100512.59;;;16.00;87.31
24752;BME280;27246;52.376;4.628;2022-09-09T00:19:33;100514.03;;;15.84;88.22
24752;BME280;27246;52.376;4.628;2022-09-09T00:24:44;100521.31;;;15.85;88.19
24752;BME280;27246;52.376;4.628;2022-09-09T00:35:02;100522.88;;;15.74;88.46
24752;BME280;27246;52.376;4.628;2022-09-09T00:40:18;100511.41;;;15.64;89.12
24752;BME280;27246;52.376;4.628;2022-09-09T00:45:47;100515.91;;;15.65;89.51
24752;BME280;27246;52.376;4.628;2022-09-09T00:50:57;100509.03;;;15.68;89.13
24752;BME280;27246;52.376;4.628;2022-09-09T00:56:20;100507.34;;;15.67;88.57
24752;BME280;27246;52.376;4.628;2022-09-09T01:01:25;100500.00;;;15.72;88.61
24752;BME280;27246;52.376;4.628;2022-09-09T01:06:35;100503.38;;;15.56;89.50
24752;BME280;27246;52.376;4.628;2022-09-09T01:16:47;100497.47;;;15.46;90.33
24752;BME280;27246;52.376;4.628;2022-09-09T01:21:58;100500.31;;;15.39;90.72
24752;BME280;27246;52.376;4.628;2022-09-09T01:27:06;100501.16;;;15.39;91.24
24752;BME280;27246;52.376;4.628;2022-09-09T01:32:45;100500.38;;;15.32;91.27
24752;BME280;27246;52.376;4.628;2022-09-09T01:37:48;100498.88;;;15.30;91.51
24752;BME280;27246;52.376;4.628;2022-09-09T01:42:51;100499.28;;;15.33;92.02
24752;BME280;27246;52.376;4.628;2022-09-09T01:47:53;100493.09;;;15.31;91.56
24752;BME280;27246;52.376;4.628;2022-09-09T01:53:15;100488.00;;;15.28;91.69
24752;BME280;27246;52.376;4.628;2022-09-09T02:04:28;100473.59;;;15.13;93.25
24752;BME280;27246;52.376;4.628;2022-09-09T02:09:36;100478.94;;;15.14;93.08
24752;BME280;27246;52.376;4.628;2022-09-09T02:14:44;100478.94;;;15.14;93.59
24752;BME280;27246;52.376;4.628;2022-09-09T02:19:54;100474.44;;;15.13;93.86
24752;BME280;27246;52.376;4.628;2022-09-09T02:25:12;100471.44;;;15.15;93.97
24752;BME280;27246;52.376;4.628;2022-09-09T02:30:18;100467.63;;;15.16;94.32
24752;BME280;27246;52.376;4.628;2022-09-09T02:35:27;100460.97;;;15.17;94.10
24752;BME280;27246;52.376;4.628;2022-09-09T02:40:32;100450.34;;;15.14;94.46
24752;BME280;27246;52.376;4.628;2022-09-09T02:45:45;100460.41;;;15.08;94.88
24752;BME280;27246;52.376;4.628;2022-09-09T02:50:54;100449.72;;;15.12;94.19
24752;BME280;27246;52.376;4.628;2022-09-09T02:56:04;100451.06;;;15.03;94.58
24752;BME280;27246;52.376;4.628;2022-09-09T03:01:10;100451.28;;;15.01;94.48
24752;BME280;27246;52.376;4.628;2022-09-09T03:06:13;100445.09;;;14.99;94.65
24752;BME280;27246;52.376;4.628;2022-09-09T03:11:17;100441.28;;;14.93;94.50
24752;BME280;27246;52.376;4.628;2022-09-09T03:16:19;100443.44;;;14.91;94.62
24752;BME280;27246;52.376;4.628;2022-09-09T03:21:24;100441.28;;;14.93;94.32
24752;BME280;27246;52.376;4.628;2022-09-09T03:26:28;100440.66;;;14.91;93.99
24752;BME280;27246;52.376;4.628;2022-09-09T03:31:31;100433.25;;;14.85;94.20
24752;BME280;27246;52.376;4.628;2022-09-09T03:36:33;100422.13;;;14.92;93.56
24752;BME280;27246;52.376;4.628;2022-09-09T03:41:35;100424.28;;;14.90;93.50
24752;BME280;27246;52.376;4.628;2022-09-09T03:46:39;100425.81;;;14.79;93.88
24752;BME280;27246;52.376;4.628;2022-09-09T03:51:41;100420.09;;;14.74;94.35
24752;BME280;27246;52.376;4.628;2022-09-09T03:56:46;100422.66;;;14.69;94.93
24752;BME280;27246;52.376;4.628;2022-09-09T04:01:49;100420.09;;;14.74;94.27
24752;BME280;27246;52.376;4.628;2022-09-09T04:06:51;100415.41;;;14.68;94.73
24752;BME280;27246;52.376;4.628;2022-09-09T04:11:53;100405.56;;;14.78;94.24
24752;BME280;27246;52.376;4.628;2022-09-09T04:16:55;100412.84;;;14.73;94.13
24752;BME280;27246;52.376;4.628;2022-09-09T04:21:57;100403.47;;;14.74;94.55
24752;BME280;27246;52.376;4.628;2022-09-09T04:26:59;100397.97;;;14.60;94.29
24752;BME280;27246;52.376;4.628;2022-09-09T04:32:03;100400.09;;;14.58;94.94
24752;BME280;27246;52.376;4.628;2022-09-09T04:37:05;100398.44;;;14.57;94.93
24752;BME280;27246;52.376;4.628;2022-09-09T04:42:07;100393.09;;;14.56;94.86
24752;BME280;27246;52.376;4.628;2022-09-09T04:47:10;100392.91;;;14.51;94.87
24752;BME280;27246;52.376;4.628;2022-09-09T04:52:12;100401.03;;;14.46;94.65
24752;BME280;27246;52.376;4.628;2022-09-09T04:57:14;100387.44;;;14.37;94.94
24752;BME280;27246;52.376;4.628;2022-09-09T05:02:20;100381.34;;;14.22;96.31
24752;BME280;27246;52.376;4.628;2022-09-09T05:07:24;100381.34;;;14.22;95.61
24752;BME280;27246;52.376;4.628;2022-09-09T05:12:27;100386.84;;;14.29;95.36
24752;BME280;27246;52.376;4.628;2022-09-09T05:17:29;100381.06;;;14.30;94.95
24752;BME280;27246;52.376;4.628;2022-09-09T05:22:31;100373.84;;;14.29;94.92
24752;BME280;27246;52.376;4.628;2022-09-09T05:27:36;100368.78;;;14.19;95.15
24752;BME280;27246;52.376;4.628;2022-09-09T05:32:38;100381.06;;;14.30;94.62
24752;BME280;27246;52.376;4.628;2022-09-09T05:37:40;100375.91;;;14.40;94.40
24752;BME280;27246;52.376;4.628;2022-09-09T05:42:42;100383.84;;;14.30;94.18
24752;BME280;27246;52.376;4.628;2022-09-09T05:47:44;100384.47;;;14.32;94.63
24752;BME280;27246;52.376;4.628;2022-09-09T05:52:48;100379.16;;;14.31;94.97
24752;BME280;27246;52.376;4.628;2022-09-09T05:57:51;100373.41;;;14.32;94.88
24752;BME280;27246;52.376;4.628;2022-09-09T06:02:54;100374.22;;;14.39;94.65
24752;BME280;27246;52.376;4.628;2022-09-09T06:07:56;100379.66;;;14.59;94.23
24752;BME280;27246;52.376;4.628;2022-09-09T06:12:58;100386.47;;;14.57;94.13
24752;BME280;27246;52.376;4.628;2022-09-09T06:18:00;100392.25;;;14.55;94.14
24752;BME280;27246;52.376;4.628;2022-09-09T06:23:03;100398.81;;;14.61;94.45
24752;BME280;27246;52.376;4.628;2022-09-09T06:28:05;100394.19;;;14.48;95.04
24752;BME280;27246;52.376;4.628;2022-09-09T06:33:07;100395.91;;;14.49;95.51
24752;BME280;27246;52.376;4.628;2022-09-09T06:38:09;100396.28;;;14.53;95.81
24752;BME280;27246;52.376;4.628;2022-09-09T06:43:11;100400.06;;;14.65;95.25
24752;BME280;27246;52.376;4.628;2022-09-09T06:48:21;100398.59;;;14.63;95.31
24752;BME280;27246;52.376;4.628;2022-09-09T06:53:23;100400.84;;;14.79;94.85
24752;BME280;27246;52.376;4.628;2022-09-09T06:58:26;100393.88;;;14.70;95.26
24752;BME280;27246;52.376;4.628;2022-09-09T07:03:32;100399.97;;;14.85;95.58
24752;BME280;27246;52.376;4.628;2022-09-09T07:08:35;100398.78;;;14.68;95.97
24752;BME280;27246;52.376;4.628;2022-09-09T07:13:37;100388.91;;;14.78;96.24
24752;BME280;27246;52.376;4.628;2022-09-09T07:18:41;100401.00;;;14.91;95.87
24752;BME280;27246;52.376;4.628;2022-09-09T07:23:43;100394.38;;;14.92;95.72
24752;BME280;27246;52.376;4.628;2022-09-09T07:28:46;100388.94;;;15.04;95.30
24752;BME280;27246;52.376;4.628;2022-09-09T07:33:48;100387.81;;;15.11;95.15
24752;BME280;27246;52.376;4.628;2022-09-09T07:38:56;100378.28;;;15.26;94.18
24752;BME280;27246;52.376;4.628;2022-09-09T07:44:03;100387.09;;;15.23;93.99
24752;BME280;27246;52.376;4.628;2022-09-09T07:49:05;100385.16;;;15.23;94.16
24752;BME280;27246;52.376;4.628;2022-09-09T07:54:11;100385.97;;;15.30;94.22
24752;BME280;27246;52.376;4.628;2022-09-09T07:59:16;100378.25;;;15.32;94.10
24752;BME280;27246;52.376;4.628;2022-09-09T08:04:22;100391.03;;;15.33;93.53
24752;BME280;27246;52.376;4.628;2022-09-09T08:09:26;100389.69;;;15.43;92.83
24752;BME280;27246;52.376;4.628;2022-09-09T08:14:37;100387.06;;;15.48;92.49
24752;BME280;27246;52.376;4.628;2022-09-09T08:19:39;100384.06;;;15.49;92.06
24752;BME280;27246;52.376;4.628;2022-09-09T08:24:48;100389.72;;;15.61;91.96
24752;BME280;27246;52.376;4.628;2022-09-09T08:29:51;100399.78;;;15.55;91.50
24752;BME280;27246;52.376;4.628;2022-09-09T08:34:53;100385.06;;;15.55;91.71
24752;BME280;27246;52.376;4.628;2022-09-09T08:39:57;100387.94;;;15.67;90.36
24752;BME280;27246;52.376;4.628;2022-09-09T08:45:20;100392.97;;;15.76;90.04
24752;BME280;27246;52.376;4.628;2022-09-09T08:50:34;100395.28;;;15.79;89.03
24752;BME280;27246;52.376;4.628;2022-09-09T08:55:51;100400.56;;;16.06;88.04
24752;BME280;27246;52.376;4.628;2022-09-09T09:12:00;100396.75;;;16.00;87.63
24752;BME280;27246;52.376;4.628;2022-09-09T09:17:14;100406.97;;;16.07;87.17
24752;BME280;27246;52.376;4.628;2022-09-09T09:22:22;100417.41;;;15.93;87.58
24752;BME280;27246;52.376;4.628;2022-09-09T09:32:56;100412.59;;;16.00;88.08
24752;BME280;27246;52.376;4.628;2022-09-09T09:38:00;100419.00;;;16.00;87.97
24752;BME280;27246;52.376;4.628;2022-09-09T09:43:29;100418.84;;;16.14;87.58
24752;BME280;27246;52.376;4.628;2022-09-09T09:48:34;100410.66;;;16.19;87.21
24752;BME280;27246;52.376;4.628;2022-09-09T09:53:37;100423.09;;;16.16;88.25
24752;BME280;27246;52.376;4.628;2022-09-09T10:03:54;100413.81;;;16.04;97.07
24752;BME280;27246;52.376;4.628;2022-09-09T10:08:59;100405.81;;;15.96;96.76
24752;BME280;27246;52.376;4.628;2022-09-09T10:19:15;100404.81;;;16.57;95.91
24752;BME280;27246;52.376;4.628;2022-09-09T10:30:19;100405.31;;;16.36;93.32
24752;BME280;27246;52.376;4.628;2022-09-09T10:40:41;100399.94;;;16.53;92.14
24752;BME280;27246;52.376;4.628;2022-09-09T10:46:01;100390.31;;;16.67;91.14
24752;BME280;27246;52.376;4.628;2022-09-09T10:56:16;100400.09;;;16.58;89.10
24752;BME280;27246;52.376;4.628;2022-09-09T11:01:34;100391.53;;;16.71;89.77
24752;BME280;27246;52.376;4.628;2022-09-09T11:06:41;100398.81;;;16.72;89.35
24752;BME280;27246;52.376;4.628;2022-09-09T11:11:56;100402.50;;;16.54;91.68
24752;BME280;27246;52.376;4.628;2022-09-09T11:43:52;100402.03;;;16.57;96.30
24752;BME280;27246;52.376;4.628;2022-09-09T11:48:59;100390.31;;;16.55;93.90
24752;BME280;27246;52.376;4.628;2022-09-09T11:59:32;100389.59;;;16.60;91.57
24752;BME280;27246;52.376;4.628;2022-09-09T12:04:37;100385.97;;;16.71;92.06
24752;BME280;27246;52.376;4.628;2022-09-09T12:20:13;100387.47;;;17.16;89.58
24752;BME280;27246;52.376;4.628;2022-09-09T12:25:23;100387.13;;;17.24;85.55
24752;BME280;27246;52.376;4.628;2022-09-09T12:30:52;100389.50;;;17.09;87.54
24752;BME280;27246;52.376;4.628;2022-09-09T12:35:58;100388.91;;;17.07;88.53
24752;BME280;27246;52.376;4.628;2022-09-09T12:41:01;100392.97;;;16.92;89.94
24752;BME280;27246;52.376;4.628;2022-09-09T12:46:08;100383.31;;;16.65;95.99
24752;BME280;27246;52.376;4.628;2022-09-09T12:56:33;100386.97;;;16.77;99.22
24752;BME280;27246;52.376;4.628;2022-09-09T13:01:36;100390.69;;;17.01;99.25
24752;BME280;27246;52.376;4.628;2022-09-09T13:06:38;100394.19;;;16.96;97.04
24752;BME280;27246;52.376;4.628;2022-09-09T13:11:42;100395.75;;;16.92;97.90
24752;BME280;27246;52.376;4.628;2022-09-09T13:16:57;100403.53;;;16.72;96.45
24752;BME280;27246;52.376;4.628;2022-09-09T13:22:37;100403.34;;;16.85;97.30
24752;BME280;27246;52.376;4.628;2022-09-09T13:27:50;100402.34;;;17.10;95.65
24752;BME280;27246;52.376;4.628;2022-09-09T13:38:15;100383.78;;;16.92;95.01
24752;BME280;27246;52.376;4.628;2022-09-09T13:43:21;100389.72;;;16.95;95.21
24752;BME280;27246;52.376;4.628;2022-09-09T13:48:24;100403.63;;;16.95;96.01
24752;BME280;27246;52.376;4.628;2022-09-09T13:53:27;100396.53;;;16.81;97.14
24752;BME280;27246;52.376;4.628;2022-09-09T13:58:29;100397.97;;;16.72;98.98
24752;BME280;27246;52.376;4.628;2022-09-09T14:03:31;100392.59;;;16.58;100.00
24752;BME280;27246;52.376;4.628;2022-09-09T14:08:32;100396.94;;;16.54;100.00
24752;BME280;27246;52.376;4.628;2022-09-09T14:13:39;100402.25;;;16.56;100.00
24752;BME280;27246;52.376;4.628;2022-09-09T14:18:41;100400.03;;;16.46;100.00
24752;BME280;27246;52.376;4.628;2022-09-09T14:23:43;100401.38;;;16.44;100.00
24752;BME280;27246;52.376;4.628;2022-09-09T14:28:45;100408.31;;;16.34;100.00
24752;BME280;27246;52.376;4.628;2022-09-09T14:33:56;100409.16;;;16.35;100.00
24752;BME280;27246;52.376;4.628;2022-09-09T14:38:58;100411.72;;;16.36;100.00
24752;BME280;27246;52.376;4.628;2022-09-09T14:43:59;100416.28;;;16.31;100.00
24752;BME280;27246;52.376;4.628;2022-09-09T14:49:02;100426.16;;;16.27;100.00
24752;BME280;27246;52.376;4.628;2022-09-09T14:54:04;100426.03;;;16.22;100.00
24752;BME280;27246;52.376;4.628;2022-09-09T14:59:05;100428.50;;;16.30;100.00
24752;BME280;27246;52.376;4.628;2022-09-09T15:04:07;100408.44;;;16.09;100.00
24752;BME280;27246;52.376;4.628;2022-09-09T15:09:09;100421.09;;;16.05;100.00
24752;BME280;27246;52.376;4.628;2022-09-09T15:14:11;100421.31;;;16.04;100.00
24752;BME280;27246;52.376;4.628;2022-09-09T15:19:13;100426.34;;;15.95;100.00
24752;BME280;27246;52.376;4.628;2022-09-09T15:24:15;100432.13;;;15.93;100.00
24752;BME280;27246;52.376;4.628;2022-09-09T15:29:18;100431.72;;;15.90;100.00
24752;BME280;27246;52.376;4.628;2022-09-09T15:34:27;100426.66;;;15.87;100.00
24752;BME280;27246;52.376;4.628;2022-09-09T15:39:29;100425.81;;;15.79;100.00
24752;BME280;27246;52.376;4.628;2022-09-09T15:44:38;100425.63;;;15.81;100.00
24752;BME280;27246;52.376;4.628;2022-09-09T15:49:40;100430.13;;;15.75;100.00
24752;BME280;27246;52.376;4.628;2022-09-09T15:54:41;100434.91;;;15.68;100.00
24752;BME280;27246;52.376;4.628;2022-09-09T15:59:44;100436.13;;;15.72;100.00
24752;BME280;27246;52.376;4.628;2022-09-09T16:04:46;100433.53;;;15.77;100.00
24752;BME280;27246;52.376;4.628;2022-09-09T16:09:48;100440.13;;;15.83;100.00
24752;BME280;27246;52.376;4.628;2022-09-09T16:14:52;100438.75;;;15.92;100.00
24752;BME280;27246;52.376;4.628;2022-09-09T16:19:53;100426.56;;;15.93;100.00
24752;BME280;27246;52.376;4.628;2022-09-09T16:24:55;100443.47;;;16.10;100.00
24752;BME280;27246;52.376;4.628;2022-09-09T16:29:57;100439.00;;;16.09;100.00
24752;BME280;27246;52.376;4.628;2022-09-09T16:34:59;100448.72;;;16.18;100.00
24752;BME280;27246;52.376;4.628;2022-09-09T16:40:01;100435.91;;;16.36;100.00
24752;BME280;27246;52.376;4.628;2022-09-09T16:45:05;100445.00;;;16.43;100.00
24752;BME280;27246;52.376;4.628;2022-09-09T16:50:08;100439.88;;;16.58;100.00
24752;BME280;27246;52.376;4.628;2022-09-09T16:55:10;100441.41;;;16.54;100.00
24752;BME280;27246;52.376;4.628;2022-09-09T17:00:11;100438.03;;;16.52;100.00
24752;BME280;27246;52.376;4.628;2022-09-09T17:05:13;100448.09;;;16.53;100.00
24752;BME280;27246;52.376;4.628;2022-09-09T17:10:15;100460.88;;;16.54;100.00
24752;BME280;27246;52.376;4.628;2022-09-09T17:15:17;100464.28;;;16.56;100.00
24752;BME280;27246;52.376;4.628;2022-09-09T17:20:19;100476.72;;;16.54;100.00
24752;BME280;27246;52.376;4.628;2022-09-09T17:25:21;100473.25;;;16.58;100.00
24752;BME280;27246;52.376;4.628;2022-09-09T17:30:26;100471.78;;;16.56;100.00
24752;BME280;27246;52.376;4.628;2022-09-09T17:35:29;100474.03;;;16.47;100.00
24752;BME280;27246;52.376;4.628;2022-09-09T17:40:31;100487.56;;;16.44;100.00
24752;BME280;27246;52.376;4.628;2022-09-09T17:45:33;100495.91;;;16.44;100.00
24752;BME280;27246;52.376;4.628;2022-09-09T17:50:34;100483.00;;;16.49;100.00
24752;BME280;27246;52.376;4.628;2022-09-09T17:55:36;100496.75;;;16.44;100.00
24752;BME280;27246;52.376;4.628;2022-09-09T18:00:38;100496.44;;;16.34;100.00
24752;BME280;27246;52.376;4.628;2022-09-09T18:05:39;100499.91;;;16.29;100.00
24752;BME280;27246;52.376;4.628;2022-09-09T18:10:51;100507.16;;;16.30;100.00
24752;BME280;27246;52.376;4.628;2022-09-09T18:15:56;100510.47;;;16.39;100.00
24752;BME280;27246;52.376;4.628;2022-09-09T18:21:04;100509.09;;;16.30;100.00
24752;BME280;27246;52.376;4.628;2022-09-09T18:26:12;100523.69;;;16.25;100.00
24752;BME280;27246;52.376;4.628;2022-09-09T18:31:15;100526.06;;;16.22;100.00
24752;BME280;27246;52.376;4.628;2022-09-09T18:36:23;100530.84;;;16.14;100.00
24752;BME280;27246;52.376;4.628;2022-09-09T18:41:28;100531.31;;;16.11;100.00
24752;BME280;27246;52.376;4.628;2022-09-09T18:46:32;100536.31;;;16.03;100.00
24752;BME280;27246;52.376;4.628;2022-09-09T18:51:35;100540.16;;;16.02;100.00
24752;BME280;27246;52.376;4.628;2022-09-09T18:56:38;100547.03;;;15.99;100.00
24752;BME280;27246;52.376;4.628;2022-09-09T19:01:40;100546.88;;;15.94;100.00
24752;BME280;27246;52.376;4.628;2022-09-09T19:06:44;100557.63;;;15.84;100.00
24752;BME280;27246;52.376;4.628;2022-09-09T19:11:47;100561.88;;;15.86;100.00
24752;BME280;27246;52.376;4.628;2022-09-09T19:16:48;100554.88;;;15.84;100.00
24752;BME280;27246;52.376;4.628;2022-09-09T19:21:52;100565.53;;;15.80;100.00
24752;BME280;27246;52.376;4.628;2022-09-09T19:27:01;100573.09;;;15.73;100.00
24752;BME280;27246;52.376;4.628;2022-09-09T19:32:03;100589.97;;;15.71;100.00
24752;BME280;27246;52.376;4.628;2022-09-09T19:37:25;100592.13;;;15.69;100.00
24752;BME280;27246;52.376;4.628;2022-09-09T19:42:27;100581.84;;;15.70;100.00
24752;BME280;27246;52.376;4.628;2022-09-09T19:47:30;100587.28;;;15.58;100.00
24752;BME280;27246;52.376;4.628;2022-09-09T19:52:32;100578.44;;;15.68;100.00
24752;BME280;27246;52.376;4.628;2022-09-09T19:57:33;100581.63;;;15.71;100.00
24752;BME280;27246;52.376;4.628;2022-09-09T20:02:36;100577.41;;;15.62;100.00
24752;BME280;27246;52.376;4.628;2022-09-09T20:07:37;100609.06;;;15.61;100.00
24752;BME280;27246;52.376;4.628;2022-09-09T20:12:39;100603.44;;;15.68;100.00
24752;BME280;27246;52.376;4.628;2022-09-09T20:17:41;100614.06;;;15.77;100.00
24752;BME280;27246;52.376;4.628;2022-09-09T20:22:43;100618.81;;;15.70;100.00
24752;BME280;27246;52.376;4.628;2022-09-09T20:27:44;100610.31;;;15.65;100.00
24752;BME280;27246;52.376;4.628;2022-09-09T20:32:46;100620.09;;;15.68;100.00
24752;BME280;27246;52.376;4.628;2022-09-09T20:37:48;100610.94;;;15.67;100.00
24752;BME280;27246;52.376;4.628;2022-09-09T20:42:50;100622.47;;;15.64;100.00
24752;BME280;27246;52.376;4.628;2022-09-09T20:47:51;100624.00;;;15.60;100.00
24752;BME280;27246;52.376;4.628;2022-09-09T20:52:54;100637.22;;;15.65;100.00
24752;BME280;27246;52.376;4.628;2022-09-09T20:57:56;100617.88;;;15.51;100.00
24752;BME280;27246;52.376;4.628;2022-09-09T21:02:58;100610.66;;;15.44;100.00
24752;BME280;27246;52.376;4.628;2022-09-09T21:08:00;100596.56;;;15.45;100.00
24752;BME280;27246;52.376;4.628;2022-09-09T21:13:02;100607.25;;;15.42;100.00
24752;BME280;27246;52.376;4.628;2022-09-09T21:18:04;100603.69;;;15.34;100.00
24752;BME280;27246;52.376;4.628;2022-09-09T21:23:06;100614.16;;;15.32;100.00
24752;BME280;27246;52.376;4.628;2022-09-09T21:28:08;100613.06;;;15.33;100.00
24752;BME280;27246;52.376;4.628;2022-09-09T21:33:10;100607.56;;;15.27;100.00
24752;BME280;27246;52.376;4.628;2022-09-09T21:38:22;100621.38;;;15.33;100.00
24752;BME280;27246;52.376;4.628;2022-09-09T21:43:24;100629.72;;;15.33;100.00
24752;BME280;27246;52.376;4.628;2022-09-09T21:48:27;100633.59;;;15.32;100.00
24752;BME280;27246;52.376;4.628;2022-09-09T21:53:29;100642.34;;;15.29;100.00
24752;BME280;27246;52.376;4.628;2022-09-09T21:58:32;100640.38;;;15.36;100.00
24752;BME280;27246;52.376;4.628;2022-09-09T22:03:36;100645.31;;;15.34;100.00
24752;BME280;27246;52.376;4.628;2022-09-09T22:08:42;100635.63;;;15.44;100.00
24752;BME280;27246;52.376;4.628;2022-09-09T22:13:44;100630.97;;;15.37;100.00
24752;BME280;27246;52.376;4.628;2022-09-09T22:18:54;100633.59;;;15.32;100.00
24752;BME280;27246;52.376;4.628;2022-09-09T22:23:59;100629.34;;;15.23;100.00
24752;BME280;27246;52.376;4.628;2022-09-09T22:29:03;100624.88;;;15.22;100.00
24752;BME280;27246;52.376;4.628;2022-09-09T22:34:05;100622.94;;;15.23;100.00
24752;BME280;27246;52.376;4.628;2022-09-09T22:39:10;100616.56;;;15.15;100.00
24752;BME280;27246;52.376;4.628;2022-09-09T22:44:11;100614.47;;;15.11;100.00
24752;BME280;27246;52.376;4.628;2022-09-09T22:49:13;100615.31;;;15.18;100.00
24752;BME280;27246;52.376;4.628;2022-09-09T22:54:15;100615.72;;;15.15;100.00
24752;BME280;27246;52.376;4.628;2022-09-09T22:59:22;100616.56;;;15.15;100.00
24752;BME280;27246;52.376;4.628;2022-09-09T23:04:23;100615.78;;;15.08;100.00
24752;BME280;27246;52.376;4.628;2022-09-09T23:09:25;100613.63;;;15.04;100.00
24752;BME280;27246;52.376;4.628;2022-09-09T23:14:27;100611.94;;;15.03;100.00
24752;BME280;27246;52.376;4.628;2022-09-09T23:19:30;100599.63;;;14.92;100.00
24752;BME280;27246;52.376;4.628;2022-09-09T23:24:32;100601.13;;;14.88;100.00
24752;BME280;27246;52.376;4.628;2022-09-09T23:29:33;100593.84;;;14.93;100.00
24752;BME280;27246;52.376;4.628;2022-09-09T23:34:35;100605.59;;;14.89;100.00
24752;BME280;27246;52.376;4.628;2022-09-09T23:39:38;100610.09;;;14.90;100.00
24752;BME280;27246;52.376;4.628;2022-09-09T23:44:40;100606.84;;;14.93;100.00
24752;BME280;27246;52.376;4.628;2022-09-09T23:49:43;100598.75;;;14.98;100.00
24752;BME280;27246;52.376;4.628;2022-09-09T23:54:45;100597.88;;;14.97;100.00
24752;BME280;27246;52.376;4.628;2022-09-09T23:59:46;100593.41;;;14.96;100.00
